createdAt,value
2022-12-18T00:20:26.431Z,97899.63
2022-12-18T00:22:28.092Z,97899.63
2022-12-18T00:24:29.915Z,97901.50
2022-12-18T00:26:34.153Z,97895.47
2022-12-18T00:28:37.134Z,97895.66
2022-12-18T00:30:38.684Z,97894.28
2022-12-18T00:32:40.608Z,97890.72
2022-12-18T00:34:42.371Z,97896.56
2022-12-18T00:38:10.759Z,97881.59
2022-12-18T00:40:13.460Z,97876.63
2022-12-18T00:42:33.776Z,97885.28
2022-12-18T00:44:35.475Z,97879.84
2022-12-18T00:46:37.697Z,97871.44
2022-12-18T00:48:39.963Z,97877.25
2022-12-18T00:50:42.410Z,97886.44
2022-12-18T00:52:44.179Z,97883.56
2022-12-18T00:54:45.910Z,97883.81
2022-12-18T00:56:49.711Z,97894.81
2022-12-18T00:58:52.165Z,97902.94
2022-12-18T01:00:53.946Z,97895.34
2022-12-18T01:02:55.892Z,97897.69
2022-12-18T01:04:57.658Z,97906.09
2022-12-18T01:06:59.406Z,97903.19
2022-12-18T01:09:01.747Z,97902.16
2022-12-18T01:11:12.622Z,97910.50
2022-12-18T01:13:14.411Z,97914.13
2022-12-18T01:15:17.601Z,97919.06
2022-12-18T01:17:19.224Z,97907.97
2022-12-18T01:19:20.999Z,97905.81
2022-12-18T01:21:23.834Z,97912.06
2022-12-18T01:23:27.141Z,97907.59
2022-12-18T01:25:28.723Z,97907.81
2022-12-18T01:27:30.437Z,97903.56
2022-12-18T01:29:32.233Z,97894.88
2022-12-18T01:31:35.216Z,97901.94
2022-12-18T01:33:37.973Z,97896.41
2022-12-18T01:35:43.177Z,97905.56
2022-12-18T01:37:44.871Z,97903.75
2022-12-18T01:39:46.783Z,97896.69
2022-12-18T01:42:04.686Z,97905.06
2022-12-18T01:44:44.845Z,97920.50
2022-12-18T01:46:46.845Z,97916.63
2022-12-18T01:48:51.545Z,97912.94
2022-12-18T01:50:53.587Z,97909.84
2022-12-18T01:53:03.228Z,97908.00
2022-12-18T01:55:06.480Z,97914.78
2022-12-18T01:57:08.424Z,97918.97
2022-12-18T01:59:12.522Z,97913.97
2022-12-18T02:01:14.913Z,97903.44
2022-12-18T02:03:17.076Z,97905.81
2022-12-18T02:06:01.800Z,97902.19
2022-12-18T02:08:13.220Z,97916.34
2022-12-18T02:10:24.397Z,97897.22
2022-12-18T02:12:34.363Z,97889.81
2022-12-18T02:14:41.516Z,97884.03
2022-12-18T02:16:54.555Z,97881.94
2022-12-18T02:19:04.627Z,97886.06
2022-12-18T02:21:13.644Z,97886.91
2022-12-18T02:23:31.007Z,97894.53
2022-12-18T02:26:11.015Z,97894.22
2022-12-18T02:28:16.454Z,97882.31
2022-12-18T02:30:20.443Z,97886.19
2022-12-18T02:32:28.475Z,97875.16
2022-12-18T02:34:36.065Z,97880.16
2022-12-18T02:36:42.417Z,97871.25
2022-12-18T02:38:47.637Z,97877.34
2022-12-18T02:40:54.008Z,97888.41
2022-12-18T02:42:56.087Z,97879.19
2022-12-18T02:44:59.375Z,97888.03
2022-12-18T02:47:02.091Z,97891.66
2022-12-18T02:49:15.968Z,97883.44
2022-12-18T02:51:40.290Z,97883.72
2022-12-18T02:53:53.250Z,97892.06
2022-12-18T02:56:39.663Z,97900.22
2022-12-18T02:59:00.712Z,97901.81
2022-12-18T03:01:31.174Z,97896.69
2022-12-18T03:03:47.616Z,97890.94
2022-12-18T03:05:57.580Z,97887.72
2022-12-18T03:08:06.391Z,97877.72
2022-12-18T03:10:16.701Z,97889.19
2022-12-18T03:12:33.373Z,97884.06
2022-12-18T03:14:38.098Z,97892.88
2022-12-18T03:16:42.117Z,97886.28
2022-12-18T03:18:52.149Z,97892.13
2022-12-18T03:20:58.492Z,97866.38
2022-12-18T03:23:07.775Z,97883.44
2022-12-18T03:25:13.987Z,97869.75
2022-12-18T03:27:21.584Z,97870.28
2022-12-18T03:29:36.568Z,97881.00
2022-12-18T03:31:42.840Z,97896.78
2022-12-18T03:33:54.931Z,97900.44
2022-12-18T03:36:02.309Z,97892.44
2022-12-18T03:38:04.403Z,97882.03
2022-12-18T03:40:08.064Z,97898.19
2022-12-18T03:42:32.637Z,97868.53
2022-12-18T03:44:54.162Z,97882.63
2022-12-18T03:47:22.247Z,97879.53
2022-12-18T03:49:34.589Z,97875.59
2022-12-18T03:52:00.727Z,97876.16
2022-12-18T03:54:07.275Z,97865.09
2022-12-18T03:56:17.275Z,97872.94
2022-12-18T03:58:27.045Z,97877.06
2022-12-18T04:00:37.676Z,97878.66
2022-12-18T04:02:48.175Z,97879.50
2022-12-18T04:05:02.454Z,97880.38
2022-12-18T04:07:05.641Z,97893.47
2022-12-18T04:09:10.030Z,97881.94
2022-12-18T04:11:16.948Z,97880.44
2022-12-18T04:13:25.573Z,97874.16
2022-12-18T04:15:28.008Z,97873.88
2022-12-18T04:17:30.744Z,97874.16
2022-12-18T04:19:33.276Z,97878.97
2022-12-18T04:21:37.561Z,97890.75
2022-12-18T04:23:39.725Z,97887.88
2022-12-18T04:25:42.615Z,97876.81
2022-12-18T04:27:49.855Z,97891.47
2022-12-18T04:29:51.857Z,97882.84
2022-12-18T04:31:55.206Z,97894.16
2022-12-18T04:33:58.407Z,97898.13
2022-12-18T04:36:00.725Z,97886.22
2022-12-18T04:38:03.020Z,97872.81
2022-12-18T04:40:05.746Z,97897.69
2022-12-18T04:42:14.660Z,97884.63
2022-12-18T04:44:16.780Z,97890.84
2022-12-18T04:46:19.134Z,97881.22
2022-12-18T04:48:21.768Z,97880.47
2022-12-18T04:50:23.899Z,97885.94
2022-12-18T04:52:25.839Z,97868.69
2022-12-18T04:54:27.641Z,97878.44
2022-12-18T04:56:29.426Z,97878.97
2022-12-18T04:58:31.242Z,97890.84
2022-12-18T05:00:33.045Z,97892.91
2022-12-18T05:02:35.726Z,97890.06
2022-12-18T05:04:37.624Z,97879.81
2022-12-18T05:06:39.472Z,97893.13
2022-12-18T05:08:41.262Z,97892.34
2022-12-18T05:10:43.232Z,97901.81
2022-12-18T05:13:00.969Z,97905.97
2022-12-18T05:15:03.583Z,97896.50
2022-12-18T05:17:05.336Z,97887.56
2022-12-18T05:19:07.359Z,97894.72
2022-12-18T05:21:09.279Z,97894.19
2022-12-18T05:23:11.286Z,97901.22
2022-12-18T05:25:13.066Z,97900.50
2022-12-18T05:27:14.790Z,97906.78
2022-12-18T05:29:16.893Z,97887.91
2022-12-18T05:31:18.782Z,97892.09
2022-12-18T05:33:21.722Z,97894.75
2022-12-18T05:35:23.462Z,97892.34
2022-12-18T05:37:25.256Z,97904.66
2022-12-18T05:39:27.096Z,97890.75
2022-12-18T05:41:29.602Z,97894.94
2022-12-18T05:43:31.727Z,97892.59
2022-12-18T05:45:33.546Z,97910.44
2022-12-18T05:47:35.491Z,97900.41
2022-12-18T05:49:37.306Z,97895.25
2022-12-18T05:51:39.055Z,97896.81
2022-12-18T05:53:42.891Z,97898.91
2022-12-18T05:55:46.347Z,97892.41
2022-12-18T05:57:48.063Z,97897.41
2022-12-18T05:59:49.779Z,97887.47
2022-12-18T06:01:51.633Z,97898.03
2022-12-18T06:03:53.809Z,97908.75
2022-12-18T06:05:55.650Z,97898.00
2022-12-18T06:07:57.581Z,97902.16
2022-12-18T06:09:59.828Z,97905.84
2022-12-18T06:12:01.548Z,97905.31
2022-12-18T06:14:05.812Z,97904.31
2022-12-18T06:16:07.842Z,97897.94
2022-12-18T06:18:09.992Z,97897.41
2022-12-18T06:20:11.689Z,97919.00
2022-12-18T06:22:13.678Z,97907.22
2022-12-18T06:24:15.601Z,97891.13
2022-12-18T06:26:17.461Z,97905.53
2022-12-18T06:28:19.373Z,97896.38
2022-12-18T06:30:22.483Z,97906.81
2022-12-18T06:32:24.538Z,97891.13
2022-12-18T06:34:26.427Z,97898.47
2022-12-18T06:36:28.232Z,97910.53
2022-12-18T06:38:30.286Z,97897.69
2022-12-18T06:40:32.034Z,97905.28
2022-12-18T06:42:34.187Z,97911.84
2022-12-18T06:44:36.264Z,97898.50
2022-12-18T06:46:38.858Z,97890.94
2022-12-18T06:48:41.126Z,97903.56
2022-12-18T06:50:43.916Z,97914.56
2022-12-18T06:52:45.983Z,97896.16
2022-12-18T06:54:49.152Z,97898.53
2022-12-18T06:56:50.997Z,97916.41
2022-12-18T06:58:53.219Z,97908.06
2022-12-18T07:00:55.013Z,97910.41
2022-12-18T07:02:56.922Z,97916.97
2022-12-18T07:04:59.036Z,97902.81
2022-12-18T07:07:01.250Z,97913.31
2022-12-18T07:09:03.372Z,97916.69
2022-12-18T07:11:06.057Z,97914.34
2022-12-18T07:13:07.816Z,97903.38
2022-12-18T07:15:10.181Z,97908.63
2022-12-18T07:17:12.103Z,97909.16
2022-12-18T07:19:13.994Z,97924.38
2022-12-18T07:21:18.749Z,97918.09
2022-12-18T07:23:20.598Z,97917.56
2022-12-18T07:25:22.658Z,97928.56
2022-12-18T07:27:24.440Z,97932.81
2022-12-18T07:29:26.545Z,97929.94
2022-12-18T07:31:28.612Z,97929.94
2022-12-18T07:33:30.585Z,97933.88
2022-12-18T07:35:34.952Z,97925.47
2022-12-18T07:37:37.238Z,97922.09
2022-12-18T07:39:39.217Z,97942.00
2022-12-18T07:41:47.583Z,97941.72
2022-12-18T07:43:51.536Z,97956.16
2022-12-18T07:45:53.455Z,97950.09
2022-12-18T07:47:55.244Z,97945.91
2022-12-18T07:49:57.709Z,97951.91
2022-12-18T07:52:00.978Z,97952.72
2022-12-18T07:54:02.970Z,97956.88
2022-12-18T07:58:30.412Z,97944.31
2022-12-18T08:00:32.219Z,97959.50
2022-12-18T08:02:34.209Z,97954.28
2022-12-18T08:04:36.596Z,97961.59
2022-12-18T08:06:38.461Z,97951.91
2022-12-18T08:08:42.307Z,97964.78
2022-12-18T08:10:44.090Z,97958.22
2022-12-18T08:12:46.745Z,97958.75
2022-12-18T08:14:48.602Z,97952.75
2022-12-18T08:16:50.461Z,97961.66
2022-12-18T08:18:54.095Z,97960.06
2022-12-18T08:20:56.723Z,97966.38
2022-12-18T08:22:59.158Z,97966.88
2022-12-18T08:25:01.012Z,97971.88
2022-12-18T08:29:25.155Z,97960.63
2022-12-18T08:31:29.307Z,97962.97
2022-12-18T08:33:31.368Z,97944.38
2022-12-18T08:35:45.458Z,97943.56
2022-12-18T08:37:48.011Z,97944.88
2022-12-18T08:39:49.867Z,97941.72
2022-12-18T08:42:11.992Z,97937.28
2022-12-18T08:44:32.410Z,97945.41
2022-12-18T08:46:38.534Z,97939.63
2022-12-18T08:48:48.961Z,97938.06
2022-12-18T08:50:58.339Z,97934.38
2022-12-18T08:53:00.071Z,97930.72
2022-12-18T08:55:16.173Z,97908.94
2022-12-18T08:57:18.021Z,97915.00
2022-12-18T08:59:20.779Z,97917.88
2022-12-18T09:01:24.547Z,97917.03
2022-12-18T09:03:26.459Z,97909.50
2022-12-18T09:05:28.873Z,97918.31
2022-12-18T09:07:30.805Z,97914.63
2022-12-18T09:09:32.653Z,97911.69
2022-12-18T09:11:34.530Z,97916.91
2022-12-18T09:13:36.574Z,97908.25
2022-12-18T09:15:48.324Z,97915.56
2022-12-18T09:17:50.873Z,97916.91
2022-12-18T09:19:52.858Z,97920.88
2022-12-18T09:21:54.818Z,97913.81
2022-12-18T09:23:57.257Z,97924.34
2022-12-18T09:26:01.940Z,97918.03
2022-12-18T09:28:07.047Z,97920.97
2022-12-18T09:30:09.602Z,97928.31
2022-12-18T09:32:38.429Z,97927.78
2022-12-18T09:34:40.650Z,97920.44
2022-12-18T09:36:42.574Z,97929.41
2022-12-18T09:38:46.702Z,97922.59
2022-12-18T09:40:56.568Z,97933.84
2022-12-18T09:43:05.596Z,97919.72
2022-12-18T09:45:19.652Z,97933.88
2022-12-18T09:47:24.581Z,97933.34
2022-12-18T09:49:32.129Z,97930.47
2022-12-18T09:51:40.961Z,97946.97
2022-12-18T09:53:48.944Z,97958.22
2022-12-18T09:59:27.056Z,97957.72
2022-12-18T10:01:38.983Z,97955.88
2022-12-18T10:03:49.963Z,97948.56
2022-12-18T10:06:10.129Z,97950.91
2022-12-18T10:08:36.020Z,97945.41
2022-12-18T10:10:48.519Z,97944.34
2022-12-18T10:13:04.940Z,97949.59
2022-12-18T10:15:17.887Z,97943.84
2022-12-18T10:17:19.642Z,97938.84
2022-12-18T10:19:50.294Z,97920.22
2022-12-18T10:22:22.396Z,97925.72
2022-12-18T10:24:55.362Z,97933.28
2022-12-18T10:27:13.493Z,97929.06
2022-12-18T10:29:16.981Z,97928.88
2022-12-18T10:31:24.550Z,97933.78
2022-12-18T10:33:31.065Z,97931.16
2022-12-18T10:35:33.027Z,97945.56
2022-12-18T10:37:34.957Z,97934.78
2022-12-18T10:39:37.593Z,97931.66
2022-12-18T10:42:51.298Z,97926.41
2022-12-18T10:45:16.638Z,97913.75
2022-12-18T10:47:19.945Z,97910.69
2022-12-18T10:49:31.280Z,97904.09
2022-12-18T10:51:36.728Z,97912.44
2022-12-18T10:53:40.892Z,97906.94
2022-12-18T10:55:46.955Z,97913.75
2022-12-18T10:57:48.701Z,97911.38
2022-12-18T10:59:53.279Z,97902.63
2022-12-18T11:01:58.034Z,97897.50
2022-12-18T11:04:26.134Z,97899.03
2022-12-18T11:06:28.888Z,97891.50
2022-12-18T11:08:31.355Z,97904.28
2022-12-18T11:10:36.596Z,97887.81
2022-12-18T11:12:38.561Z,97905.84
2022-12-18T11:14:46.845Z,97889.03
2022-12-18T11:17:24.458Z,97892.13
2022-12-18T11:19:39.131Z,97903.09
2022-12-18T11:21:44.022Z,97884.44
2022-12-18T11:23:54.469Z,97884.72
2022-12-18T11:26:02.623Z,97886.88
2022-12-18T11:28:28.804Z,97875.34
2022-12-18T11:30:35.953Z,97897.34
2022-12-18T11:32:45.994Z,97890.97
2022-12-18T11:34:58.871Z,97892.59
2022-12-18T11:37:03.967Z,97905.19
2022-12-18T11:39:35.087Z,97902.06
2022-12-18T11:42:06.615Z,97894.50
2022-12-18T11:44:14.762Z,97901.59
2022-12-18T11:46:39.163Z,97897.84
2022-12-18T11:48:57.059Z,97885.38
2022-12-18T11:51:02.707Z,97870.13
2022-12-18T11:53:06.370Z,97871.66
2022-12-18T11:55:33.274Z,97856.78
2022-12-18T11:57:42.618Z,97851.22
2022-12-18T12:00:10.898Z,97851.16
2022-12-18T12:02:38.648Z,97849.75
2022-12-18T12:04:40.418Z,97842.41
2022-12-18T12:06:49.535Z,97841.25
2022-12-18T12:09:08.857Z,97849.41
2022-12-18T12:11:34.356Z,97850.34
2022-12-18T12:14:14.362Z,97855.56
2022-12-18T12:16:28.325Z,97866.56
2022-12-18T12:19:01.183Z,97855.81
2022-12-18T12:21:10.899Z,97861.75
2022-12-18T12:23:23.555Z,97853.78
2022-12-18T12:25:51.628Z,97863.03
2022-12-18T12:28:24.724Z,97871.47
2022-12-18T12:30:43.932Z,97880.84
2022-12-18T12:33:00.900Z,97872.09
2022-12-18T12:35:17.856Z,97875.00
2022-12-18T12:37:41.645Z,97870.06
2022-12-18T12:39:46.930Z,97873.25
2022-12-18T12:42:08.231Z,97859.53
2022-12-18T12:45:00.647Z,97853.34
2022-12-18T12:47:14.229Z,97841.69
2022-12-18T12:49:22.024Z,97842.28
2022-12-18T12:51:33.828Z,97870.31
2022-12-18T12:53:40.151Z,97854.19
2022-12-18T12:55:44.304Z,97858.94
2022-12-18T12:58:07.973Z,97871.84
2022-12-18T13:00:15.998Z,97867.56
2022-12-18T13:02:33.431Z,97875.47
2022-12-18T13:04:58.962Z,97862.22
2022-12-18T13:07:11.248Z,97870.25
2022-12-18T13:09:17.720Z,97868.97
2022-12-18T13:12:08.424Z,97869.38
2022-12-18T13:14:22.681Z,97853.63
2022-12-18T13:16:28.227Z,97841.41
2022-12-18T13:18:30.718Z,97845.75
2022-12-18T13:20:40.646Z,97843.78
2022-12-18T13:22:53.089Z,97841.03
2022-12-18T13:24:55.282Z,97832.75
2022-12-18T13:26:57.456Z,97829.06
2022-12-18T13:29:02.236Z,97822.72
2022-12-18T13:31:04.654Z,97829.47
2022-12-18T13:33:18.700Z,97816.94
2022-12-18T13:35:23.277Z,97818.53
2022-12-18T13:37:32.371Z,97808.59
2022-12-18T13:39:35.992Z,97815.97
2022-12-18T13:41:38.404Z,97815.50
2022-12-18T13:43:45.836Z,97827.81
2022-12-18T13:46:06.356Z,97834.69
2022-12-18T13:48:17.139Z,97829.72
2022-12-18T13:50:29.863Z,97839.84
2022-12-18T13:52:40.093Z,97830.59
2022-12-18T13:54:43.729Z,97852.47
2022-12-18T13:56:47.530Z,97844.75
2022-12-18T13:59:13.406Z,97845.88
2022-12-18T14:01:24.854Z,97848.63
2022-12-18T14:03:29.171Z,97838.59
2022-12-18T14:05:35.531Z,97833.75
2022-12-18T14:07:41.943Z,97848.69
2022-12-18T14:10:01.974Z,97848.34
2022-12-18T14:12:36.386Z,97844.94
2022-12-18T14:14:38.255Z,97841.00
2022-12-18T14:16:42.038Z,97843.50
2022-12-18T14:18:51.614Z,97830.19
2022-12-18T14:20:57.642Z,97840.09
2022-12-18T14:23:01.073Z,97827.63
2022-12-18T14:25:19.995Z,97827.34
2022-12-18T14:27:25.453Z,97838.38
2022-12-18T14:29:29.608Z,97852.25
2022-12-18T14:31:32.562Z,97845.50
2022-12-18T14:33:35.167Z,97858.03
2022-12-18T14:35:40.435Z,97850.94
2022-12-18T14:37:42.489Z,97839.97
2022-12-18T14:39:59.009Z,97849.69
2022-12-18T14:42:01.006Z,97857.13
2022-12-18T14:44:08.083Z,97849.59
2022-12-18T14:46:31.473Z,97852.53
2022-12-18T14:49:02.459Z,97856.44
2022-12-18T14:51:11.605Z,97849.25
2022-12-18T14:53:47.760Z,97856.16
2022-12-18T14:55:54.170Z,97850.88
2022-12-18T14:57:57.350Z,97862.16
2022-12-18T15:00:06.417Z,97851.09
2022-12-18T15:06:31.295Z,97856.88
2022-12-18T15:08:37.988Z,97866.28
2022-12-18T15:10:48.589Z,97869.63
2022-12-18T15:12:56.749Z,97875.59
2022-12-18T15:14:58.793Z,97882.00
2022-12-18T15:17:20.115Z,97873.53
2022-12-18T15:19:50.090Z,97865.22
2022-12-18T15:21:51.773Z,97861.06
2022-12-18T15:24:19.828Z,97859.06
2022-12-18T15:27:19.624Z,97866.41
2022-12-18T15:29:23.067Z,97855.78
2022-12-18T15:31:38.704Z,97841.25
2022-12-18T15:33:51.337Z,97861.66
2022-12-18T15:36:05.051Z,97856.56
2022-12-18T15:38:13.874Z,97847.41
2022-12-18T15:40:18.663Z,97854.09
2022-12-18T15:42:41.241Z,97845.75
2022-12-18T15:49:03.080Z,97843.97
2022-12-18T15:51:12.943Z,97839.41
2022-12-18T15:53:15.294Z,97835.13
2022-12-18T15:55:41.623Z,97826.75
2022-12-18T15:57:44.647Z,97836.28
2022-12-18T15:59:46.849Z,97849.59
2022-12-18T16:01:51.861Z,97844.47
2022-12-18T16:03:58.122Z,97843.41
2022-12-18T16:06:02.958Z,97833.91
2022-12-18T16:08:05.969Z,97840.50
2022-12-18T16:10:08.346Z,97848.03
2022-12-18T16:12:18.075Z,97840.00
2022-12-18T16:14:22.636Z,97842.56
2022-12-18T16:16:26.008Z,97841.91
2022-12-18T16:18:29.276Z,97830.81
2022-12-18T16:20:31.248Z,97834.94
2022-12-18T16:22:33.006Z,97831.00
2022-12-18T16:24:37.134Z,97838.41
2022-12-18T16:26:39.361Z,97832.38
2022-12-18T16:28:45.287Z,97832.81
2022-12-18T16:30:49.938Z,97827.22
2022-12-18T16:32:52.084Z,97822.47
2022-12-18T16:34:53.778Z,97818.97
2022-12-18T16:37:05.124Z,97816.22
2022-12-18T16:39:07.630Z,97813.13
2022-12-18T16:41:41.783Z,97815.03
2022-12-18T16:43:44.031Z,97822.63
2022-12-18T16:45:46.376Z,97802.44
2022-12-18T16:47:50.960Z,97797.16
2022-12-18T16:49:53.344Z,97806.19
2022-12-18T16:51:57.477Z,97807.56
2022-12-18T16:53:59.244Z,97804.13
2022-12-18T16:56:01.423Z,97799.66
2022-12-18T16:58:03.147Z,97790.31
2022-12-18T17:00:06.321Z,97802.47
2022-12-18T17:02:18.069Z,97799.16
2022-12-18T17:04:22.019Z,97808.84
2022-12-18T17:06:25.199Z,97801.16
2022-12-18T17:09:16.381Z,97790.06
2022-12-18T17:11:18.482Z,97800.81
2022-12-18T17:13:49.313Z,97802.88
2022-12-18T17:15:52.610Z,97798.81
2022-12-18T17:18:44.640Z,97791.44
2022-12-18T17:20:47.167Z,97787.78
2022-12-18T17:22:49.302Z,97784.66
2022-12-18T17:24:52.699Z,97787.59
2022-12-18T17:27:01.485Z,97800.41
2022-12-18T17:29:03.631Z,97793.78
2022-12-18T17:31:18.517Z,97798.75
2022-12-18T17:33:20.737Z,97801.47
2022-12-18T17:35:24.143Z,97803.56
2022-12-18T17:37:26.984Z,97797.44
2022-12-18T17:39:30.804Z,97792.41
2022-12-18T17:42:02.231Z,97794.41
2022-12-18T17:44:06.190Z,97794.22
2022-12-18T17:46:08.175Z,97797.44
2022-12-18T17:48:11.331Z,97792.16
2022-12-18T17:50:13.345Z,97794.13
2022-12-18T17:52:43.493Z,97788.50
2022-12-18T17:54:46.016Z,97801.28
2022-12-18T17:56:49.890Z,97809.97
2022-12-18T17:58:51.668Z,97808.56
2022-12-18T18:00:53.659Z,97805.59
2022-12-18T18:02:56.072Z,97795.88
2022-12-18T18:04:57.914Z,97800.31
2022-12-18T18:06:59.663Z,97791.47
2022-12-18T18:09:01.501Z,97789.53
2022-12-18T18:11:24.878Z,97798.47
2022-12-18T18:13:47.057Z,97795.47
2022-12-18T18:16:20.187Z,97802.41
2022-12-18T18:18:22.016Z,97781.22
2022-12-18T18:20:28.495Z,97788.53
2022-12-18T18:22:30.770Z,97778.56
2022-12-18T18:24:33.156Z,97773.75
2022-12-18T18:26:35.547Z,97778.13
2022-12-18T18:28:37.589Z,97771.47
2022-12-18T18:30:39.823Z,97777.13
2022-12-18T18:32:41.650Z,97776.25
2022-12-18T18:34:43.974Z,97782.97
2022-12-18T18:36:46.228Z,97786.50
2022-12-18T18:38:48.762Z,97773.53
2022-12-18T18:41:01.683Z,97773.03
2022-12-18T18:43:03.871Z,97769.84
2022-12-18T18:45:07.824Z,97774.69
2022-12-18T18:47:09.855Z,97785.88
2022-12-18T18:49:18.763Z,97774.16
2022-12-18T18:51:21.938Z,97772.56
2022-12-18T18:53:23.870Z,97772.56
2022-12-18T18:55:28.004Z,97772.09
2022-12-18T18:57:30.675Z,97765.50
2022-12-18T18:59:32.607Z,97776.59
2022-12-18T19:01:34.859Z,97773.38
2022-12-18T19:03:37.999Z,97774.53
2022-12-18T19:05:44.434Z,97769.53
2022-12-18T19:07:49.881Z,97768.25
2022-12-18T19:09:53.983Z,97777.84
2022-12-18T19:12:14.996Z,97774.44
2022-12-18T19:14:18.935Z,97775.59
2022-12-18T19:16:21.104Z,97772.91
2022-12-18T19:18:25.530Z,97770.63
2022-12-18T19:20:27.815Z,97768.88
2022-12-18T19:22:29.839Z,97759.09
2022-12-18T19:24:56.921Z,97775.34
2022-12-18T19:26:58.738Z,97766.09
2022-12-18T19:29:06.024Z,97757.38
2022-12-18T19:31:10.835Z,97759.72
2022-12-18T19:33:41.870Z,97756.63
2022-12-18T19:35:34.632Z,97757.03
2022-12-18T19:38:29.028Z,97763.00
2022-12-18T19:40:30.910Z,97758.78
2022-12-18T19:42:35.649Z,97761.03
2022-12-18T19:44:42.081Z,97758.41
2022-12-18T19:46:46.088Z,97756.13
2022-12-18T19:48:49.014Z,97745.25
2022-12-18T19:50:51.273Z,97750.69
2022-12-18T19:52:53.332Z,97748.25
2022-12-18T19:54:55.247Z,97757.34
2022-12-18T19:56:57.487Z,97744.28
2022-12-18T19:58:59.996Z,97744.03
2022-12-18T20:01:02.643Z,97747.91
2022-12-18T20:03:17.667Z,97740.00
2022-12-18T20:05:25.325Z,97735.97
2022-12-18T20:07:27.060Z,97725.22
2022-12-18T20:09:28.776Z,97733.34
2022-12-18T20:11:31.257Z,97723.66
2022-12-18T20:13:33.561Z,97735.94
2022-12-18T20:15:35.948Z,97728.44
2022-12-18T20:17:41.092Z,97732.69
2022-12-18T20:19:49.619Z,97712.09
2022-12-18T20:21:51.672Z,97722.19
2022-12-18T20:23:56.023Z,97716.22
2022-12-18T20:25:57.939Z,97721.78
2022-12-18T20:27:59.896Z,97730.38
2022-12-18T20:30:02.154Z,97711.66
2022-12-18T20:32:04.607Z,97711.94
2022-12-18T20:34:07.072Z,97716.63
2022-12-18T20:36:15.492Z,97730.91
2022-12-18T20:38:18.306Z,97717.22
2022-12-18T20:40:26.504Z,97727.31
2022-12-18T20:42:29.209Z,97727.94
2022-12-18T20:44:35.164Z,97732.88
2022-12-18T20:46:37.066Z,97736.50
2022-12-18T20:48:41.056Z,97732.19
2022-12-18T20:50:43.386Z,97730.63
2022-12-18T20:52:45.185Z,97734.94
2022-12-18T20:54:47.006Z,97718.72
2022-12-18T20:56:49.200Z,97728.81
2022-12-18T20:58:51.809Z,97719.28
2022-12-18T21:01:15.018Z,97719.41
2022-12-18T21:03:17.903Z,97705.09
2022-12-18T21:05:19.774Z,97712.66
2022-12-18T21:07:22.748Z,97703.88
2022-12-18T21:09:24.603Z,97710.94
2022-12-18T21:11:50.488Z,97715.56
2022-12-18T21:13:52.924Z,97720.06
2022-12-18T21:15:55.197Z,97708.03
2022-12-18T21:17:57.722Z,97718.75
2022-12-18T21:20:00.145Z,97710.78
2022-12-18T21:22:02.235Z,97702.94
2022-12-18T21:24:11.959Z,97705.00
2022-12-18T21:26:25.781Z,97704.88
2022-12-18T21:28:27.895Z,97695.59
2022-12-18T21:30:29.686Z,97710.31
2022-12-18T21:32:36.437Z,97720.22
2022-12-18T21:34:44.683Z,97706.13
2022-12-18T21:36:50.174Z,97706.09
2022-12-18T21:38:55.845Z,97714.34
2022-12-18T21:40:59.765Z,97711.84
2022-12-18T21:43:22.040Z,97722.09
2022-12-18T21:45:23.666Z,97722.63
2022-12-18T21:47:29.577Z,97726.91
2022-12-18T21:49:32.436Z,97719.16
2022-12-18T21:52:32.653Z,97720.19
2022-12-18T21:54:34.944Z,97720.41
2022-12-18T21:56:43.979Z,97716.28
2022-12-18T21:58:57.304Z,97715.84
2022-12-18T22:00:59.274Z,97704.19
2022-12-18T22:03:17.058Z,97719.59
2022-12-18T22:05:20.623Z,97722.50
2022-12-18T22:07:22.641Z,97712.38
2022-12-18T22:09:25.693Z,97721.31
2022-12-18T22:11:28.028Z,97710.56
2022-12-18T22:13:30.045Z,97722.03
2022-12-18T22:15:32.307Z,97720.56
2022-12-18T22:17:34.016Z,97713.34
2022-12-18T22:19:42.653Z,97727.63
2022-12-18T22:21:47.172Z,97710.84
2022-12-18T22:24:00.570Z,97717.47
2022-12-18T22:26:02.984Z,97716.38
2022-12-18T22:30:59.262Z,97701.25
2022-12-18T22:33:01.374Z,97708.31
2022-12-18T22:35:10.473Z,97711.78
2022-12-18T22:37:16.228Z,97709.63
2022-12-18T22:39:20.995Z,97710.03
2022-12-18T22:41:22.917Z,97707.84
2022-12-18T22:43:24.560Z,97707.59
2022-12-18T22:45:26.597Z,97711.88
2022-12-18T22:47:30.522Z,97702.81
2022-12-18T22:49:32.560Z,97711.88
2022-12-18T22:51:36.505Z,97713.94
2022-12-18T22:53:38.632Z,97707.13
2022-12-18T22:55:41.416Z,97707.53
2022-12-18T22:57:48.566Z,97702.06
2022-12-18T22:59:51.953Z,97706.84
2022-12-18T23:01:58.647Z,97705.91
2022-12-18T23:04:01.684Z,97701.81
2022-12-18T23:06:07.586Z,97687.22
2022-12-18T23:08:09.522Z,97697.94
2022-12-18T23:10:11.535Z,97702.81
2022-12-18T23:12:16.477Z,97694.59
2022-12-18T23:14:18.460Z,97694.22
2022-12-18T23:16:21.332Z,97673.41
2022-12-18T23:18:23.240Z,97673.91
2022-12-18T23:20:27.011Z,97679.19
2022-12-18T23:22:30.271Z,97673.81
2022-12-18T23:24:32.758Z,97685.22
2022-12-18T23:26:35.537Z,97667.66
2022-12-18T23:28:38.022Z,97672.38
2022-12-18T23:30:39.660Z,97668.94
2022-12-18T23:32:41.198Z,97664.47
2022-12-18T23:34:42.754Z,97666.50
2022-12-18T23:36:46.170Z,97663.31
2022-12-18T23:38:50.996Z,97671.91
2022-12-18T23:40:52.521Z,97672.28
2022-12-18T23:43:00.251Z,97674.22
2022-12-18T23:45:03.908Z,97674.41
2022-12-18T23:47:11.009Z,97667.91
2022-12-18T23:49:12.759Z,97669.91
2022-12-18T23:51:16.562Z,97674.44
2022-12-18T23:53:18.176Z,97658.31
2022-12-18T23:55:19.765Z,97667.19
2022-12-18T23:57:21.855Z,97664.56
2022-12-18T23:59:26.675Z,97669.63
